Time;durP1;ratioP1;P1;durP2;ratioP2;P2;SDS_P1;SDS_P2;PMS_P1;PMS_P2;Temp;Humidity;BMP_temperature;BMP_pressure;BME280_temperature;BME280_humidity;BME280_pressure;Samples;Min_cycle;Max_cycle;Signal;HPM_P1;HPM_P2
2023/09/30 00:01:03;;;;;;;16.73;4.45;;;12.60;99.90;;;12.84;100.00;101200.09;5028422;28;20038;-88
2023/09/30 00:03:28;;;;;;;17.20;4.25;;;12.70;99.90;;;12.90;100.00;101227.44;5010996;28;20057;-87
2023/09/30 00:05:59;;;;;;;18.55;4.20;;;12.60;99.90;;;12.84;100.00;101214.59;5015497;28;20030;-89
2023/09/30 00:08:24;;;;;;;17.88;4.10;;;12.60;99.90;;;12.89;100.00;101227.66;5008335;28;20029;-87
2023/09/30 00:10:52;;;;;;;17.85;4.75;;;12.60;99.90;;;12.83;100.00;101229.34;5019376;28;20103;-88
2023/09/30 00:13:18;;;;;;;;;;;12.70;99.90;;;12.87;100.00;101224.28;5031078;28;20041;-88
2023/09/30 00:15:44;;;;;;;16.65;4.30;;;12.80;99.90;;;12.97;100.00;101252.03;5029023;28;19924;-88
2023/09/30 00:18:10;;;;;;;19.00;4.30;;;12.90;99.90;;;13.00;100.00;101267.19;5031452;28;20040;-88
2023/09/30 00:20:39;;;;;;;14.15;3.92;;;12.90;99.90;;;13.05;100.00;101268.25;5032436;28;20046;-87
2023/09/30 00:23:06;;;;;;;18.60;4.20;;;13.00;99.90;;;13.05;100.00;101290.16;5033237;28;20102;-90
2023/09/30 00:25:32;;;;;;;23.35;4.60;;;12.90;99.90;;;13.03;100.00;101308.69;5041463;28;20041;-87
2023/09/30 00:27:59;;;;;;;18.63;4.85;;;12.90;99.90;;;13.02;100.00;101315.25;5020277;28;20038;-85
2023/09/30 00:30:24;;;;;;;15.50;4.03;;;12.90;99.90;;;12.92;100.00;101303.88;5037498;28;20723;-88
2023/09/30 00:32:50;;;;;;;20.15;4.05;;;12.90;99.90;;;12.91;100.00;101305.78;5008050;28;20135;-87
2023/09/30 00:35:18;;;;;;;18.00;4.35;;;12.90;99.90;;;12.92;100.00;101332.13;5015759;28;20034;-89
2023/09/30 00:37:45;;;;;;;16.80;4.13;;;12.90;99.90;;;12.92;100.00;101336.75;5009664;28;20088;-90
2023/09/30 00:40:11;;;;;;;19.17;4.00;;;12.80;99.90;;;12.87;100.00;101328.34;5014878;28;20083;-87
2023/09/30 00:42:41;;;;;;;13.98;4.13;;;12.70;99.90;;;12.79;100.00;101327.53;5021982;28;20045;-87
2023/09/30 00:45:09;;;;;;;19.45;4.28;;;12.70;99.90;;;12.76;100.00;101325.22;5021135;28;20037;-87
2023/09/30 00:47:37;;;;;;;17.52;4.05;;;12.60;99.90;;;12.74;100.00;101327.34;5036152;28;20040;-87
2023/09/30 00:50:08;;;;;;;14.93;4.00;;;12.60;99.90;;;12.72;100.00;101325.88;5013717;28;20068;-88
2023/09/30 00:52:36;;;;;;;17.98;3.50;;;12.60;99.90;;;12.68;100.00;101328.19;5018124;28;20198;-89
2023/09/30 00:55:04;;;;;;;21.60;3.97;;;12.60;99.90;;;12.63;100.00;101326.09;5021580;28;20034;-88
2023/09/30 00:57:31;;;;;;;18.70;4.28;;;12.50;99.90;;;12.58;100.00;101325.88;5019290;28;20037;-87
2023/09/30 00:59:59;;;;;;;20.05;4.50;;;12.40;99.90;;;12.59;100.00;101318.53;5010635;28;20040;-88
2023/09/30 01:02:25;;;;;;;20.67;4.20;;;12.50;99.90;;;12.55;100.00;101317.28;5028351;28;20370;-88
2023/09/30 01:04:52;;;;;;;20.90;4.00;;;12.50;99.90;;;12.53;100.00;101314.72;5011282;28;20049;-88
2023/09/30 01:07:21;;;;;;;15.23;4.03;;;12.40;99.90;;;12.47;100.00;101310.97;5017710;28;20057;-87
2023/09/30 01:09:48;;;;;;;17.88;4.07;;;12.30;99.90;;;12.39;100.00;101292.03;5032957;28;20045;-87
2023/09/30 01:12:14;;;;;;;18.13;3.80;;;12.30;99.90;;;12.39;100.00;101294.75;5000024;28;20087;-87
2023/09/30 01:14:42;;;;;;;23.55;5.03;;;12.20;99.90;;;12.25;100.00;101277.53;5022517;28;20077;-87
2023/09/30 01:17:09;;;;;;;18.48;3.88;;;12.20;99.90;;;12.19;100.00;101272.91;5016724;28;20079;-87
2023/09/30 01:19:35;;;;;;;15.80;3.78;;;12.10;99.90;;;12.25;100.00;101273.97;5018920;28;20029;-87
2023/09/30 01:22:05;;;;;;;19.95;4.00;;;12.00;99.90;;;12.27;100.00;101275.41;5016087;28;20062;-87
2023/09/30 01:24:40;;;;;;;15.45;3.83;;;12.10;99.90;;;12.27;100.00;101277.34;5020482;28;20073;-87
2023/09/30 01:27:07;;;;;;;17.38;4.10;;;12.10;99.90;;;12.26;100.00;101281.94;5019102;28;20117;-87
2023/09/30 01:29:33;;;;;;;17.85;4.60;;;12.10;99.90;;;12.26;100.00;101292.06;5013792;28;20045;-87
2023/09/30 01:31:59;;;;;;;12.48;3.70;;;12.10;99.90;;;12.26;100.00;101287.41;5018118;28;20103;-87
2023/09/30 01:34:25;;;;;;;17.63;3.60;;;12.10;99.90;;;12.26;100.00;101295.63;5018439;28;20087;-88
2023/09/30 01:36:51;;;;;;;26.15;4.53;;;12.10;99.90;;;12.30;100.00;101302.34;5020848;28;20037;-88
2023/09/30 01:39:17;;;;;;;22.38;4.00;;;12.10;99.90;;;12.32;100.00;101308.44;4999923;28;20095;-87
2023/09/30 01:41:43;;;;;;;16.02;4.40;;;12.10;99.90;;;12.34;100.00;101319.19;5015629;28;20041;-87
2023/09/30 01:44:09;;;;;;;17.42;4.28;;;12.10;99.90;;;12.27;100.00;101315.63;5012562;28;20034;-88
2023/09/30 01:46:36;;;;;;;22.40;4.88;;;12.10;99.90;;;12.21;100.00;101314.56;5020448;28;20120;-87
2023/09/30 01:49:03;;;;;;;19.52;4.10;;;12.10;99.90;;;12.19;100.00;101320.25;5022469;28;20040;-87
2023/09/30 01:51:30;;;;;;;19.05;3.83;;;12.10;99.90;;;12.03;100.00;101315.22;5016048;28;20129;-88
2023/09/30 01:53:58;;;;;;;20.48;4.72;;;12.00;99.90;;;12.05;100.00;101324.03;5011658;28;20053;-87
2023/09/30 01:56:23;;;;;;;18.88;4.63;;;11.90;99.90;;;11.94;100.00;101312.66;5013929;28;20540;-88
2023/09/30 01:58:49;;;;;;;15.38;3.58;;;11.80;99.90;;;11.89;100.00;101301.50;5017682;28;20037;-87
2023/09/30 02:01:15;;;;;;;16.00;3.95;;;11.80;99.90;;;11.91;100.00;101304.03;5020857;28;20088;-86
2023/09/30 02:03:43;;;;;;;15.68;4.05;;;11.80;99.90;;;11.94;100.00;101293.53;5012855;28;20038;-86
2023/09/30 02:06:10;;;;;;;19.75;4.20;;;11.80;99.90;;;11.94;100.00;101301.72;5011281;28;20061;-87
2023/09/30 02:08:36;;;;;;;14.75;3.70;;;11.80;99.90;;;11.94;100.00;101290.78;5000297;28;20044;-87
2023/09/30 02:11:05;;;;;;;17.67;4.38;;;11.80;99.90;;;12.00;100.00;101297.28;5018972;28;20076;-87
2023/09/30 02:13:37;;;;;;;14.98;3.97;;;11.80;99.90;;;11.89;100.00;101282.34;5014277;28;20044;-87
2023/09/30 02:16:03;;;;;;;18.83;4.35;;;11.80;99.90;;;11.91;100.00;101288.44;5021497;28;20073;-88
2023/09/30 02:18:32;;;;;;;18.67;4.10;;;11.80;99.90;;;11.89;100.00;101292.47;5010874;28;20181;-87
2023/09/30 02:20:59;;;;;;;13.18;3.67;;;11.70;99.90;;;11.93;100.00;101291.84;5027645;28;20038;-88
2023/09/30 02:23:25;;;;;;;13.63;3.60;;;11.80;99.90;;;11.90;100.00;101286.78;4998381;28;20393;-87
2023/09/30 02:25:51;;;;;;;21.20;3.70;;;11.70;99.90;;;11.88;100.00;101275.22;5026909;28;20037;-88
2023/09/30 02:28:16;;;;;;;19.13;4.25;;;11.70;99.90;;;11.85;100.00;101275.63;4995417;28;20044;-87
2023/09/30 02:30:42;;;;;;;17.85;4.50;;;11.70;99.90;;;11.86;100.00;101274.56;5012185;28;20092;-87
2023/09/30 02:33:08;;;;;;;18.98;4.20;;;11.70;99.90;;;11.79;100.00;101260.91;5012463;28;20034;-88
2023/09/30 02:35:33;;;;;;;17.88;4.47;;;11.70;99.90;;;11.69;100.00;101260.50;5011386;28;20091;-88
2023/09/30 02:38:00;;;;;;;14.70;3.55;;;11.70;99.90;;;11.76;100.00;101277.72;5012557;28;20034;-88
2023/09/30 02:40:27;;;;;;;12.85;3.50;;;11.60;99.90;;;11.74;100.00;101276.28;5017843;28;20392;-88
2023/09/30 02:42:53;;;;;;;17.63;3.70;;;11.60;99.90;;;11.74;100.00;101276.28;5028612;28;20045;-88
2023/09/30 02:45:18;;;;;;;17.58;3.92;;;11.60;99.90;;;11.69;100.00;101279.63;5022429;28;20042;-88
2023/09/30 02:47:44;;;;;;;14.85;3.60;;;11.60;99.90;;;11.68;100.00;101264.28;5020154;28;20030;-88
2023/09/30 02:50:11;;;;;;;22.15;4.63;;;11.60;99.90;;;11.71;100.00;101272.06;5027861;28;20072;-88
2023/09/30 02:52:40;;;;;;;18.02;3.70;;;11.60;99.90;;;11.73;100.00;101282.78;5028587;28;20046;-88
2023/09/30 02:55:11;;;;;;;19.13;3.65;;;11.60;99.90;;;11.66;100.00;101277.31;5020445;28;20454;-88
2023/09/30 02:57:38;;;;;;;18.80;4.07;;;11.60;99.90;;;11.65;100.00;101270.16;5012871;28;20049;-87
2023/09/30 03:00:20;;;;;;;17.40;4.10;;;11.60;99.90;;;11.67;100.00;101265.31;5017597;28;20037;-87
2023/09/30 03:02:46;;;;;;;20.33;4.47;;;11.60;99.90;;;11.68;100.00;101263.44;5012100;28;20037;-87
2023/09/30 03:05:13;;;;;;;18.75;4.05;;;11.60;99.90;;;11.65;100.00;101253.75;5020939;28;20045;-88
2023/09/30 03:07:39;;;;;;;16.95;4.03;;;11.60;99.90;;;11.65;100.00;101279.19;5024231;28;20186;-88
2023/09/30 03:10:08;;;;;;;17.80;4.38;;;11.60;99.90;;;11.63;100.00;101275.00;5034996;28;20045;-88
2023/09/30 03:12:35;;;;;;;16.13;3.78;;;11.50;99.90;;;11.61;100.00;101279.81;5015858;28;20107;-89
2023/09/30 03:15:04;;;;;;;16.63;4.05;;;11.50;99.90;;;11.59;100.00;101273.72;5015664;28;20038;-88
2023/09/30 03:17:33;;;;;;;14.98;4.53;;;11.40;99.90;;;11.55;100.00;101262.38;5028157;28;20071;-88
2023/09/30 03:20:00;;;;;;;14.82;4.18;;;11.40;99.90;;;11.51;100.00;101256.47;5014229;28;20480;-87
2023/09/30 03:22:27;;;;;;;16.10;4.03;;;11.40;99.90;;;11.54;100.00;101263.41;5018065;28;20282;-88
2023/09/30 03:24:54;;;;;;;16.70;4.53;;;11.40;99.90;;;11.47;100.00;101251.66;5021720;28;20106;-88
2023/09/30 03:27:20;;;;;;;20.95;4.93;;;11.40;99.90;;;11.45;100.00;101237.34;5015555;28;20033;-88
2023/09/30 03:29:46;;;;;;;19.55;4.85;;;11.30;99.90;;;11.49;100.00;101238.63;5016790;28;20029;-88
2023/09/30 03:32:12;;;;;;;22.98;6.90;;;11.30;99.90;;;11.46;100.00;101239.84;5015489;28;20038;-88
2023/09/30 03:34:44;;;;;;;12.65;4.85;;;11.30;99.90;;;11.40;100.00;101223.44;5024491;28;20092;-87
2023/09/30 03:37:10;;;;;;;18.23;4.95;;;11.30;99.90;;;11.46;100.00;101228.09;5031322;28;20112;-87
2023/09/30 03:39:36;;;;;;;16.38;5.47;;;11.30;99.90;;;11.51;100.00;101231.03;5023336;28;20129;-88
2023/09/30 03:42:03;;;;;;;16.48;5.50;;;11.30;99.90;;;11.40;100.00;101210.66;5031120;28;20037;-88
2023/09/30 03:44:29;;;;;;;20.23;5.68;;;11.30;99.90;;;11.43;100.00;101207.50;5019100;28;20040;-88
2023/09/30 03:46:59;;;;;;;21.65;5.78;;;11.30;99.90;;;11.35;100.00;101211.25;5019158;28;20044;-88
2023/09/30 03:49:24;;;;;;;21.55;5.22;;;11.30;99.90;;;11.34;100.00;101217.78;5022550;28;20034;-87
2023/09/30 03:51:50;;;;;;;18.80;5.93;;;11.20;99.90;;;11.31;100.00;101211.91;5026980;28;20037;-89
2023/09/30 03:54:17;;;;;;;19.25;5.53;;;11.20;99.90;;;11.24;100.00;101203.69;5011994;28;20057;-88
2023/09/30 03:56:46;;;;;;;20.30;5.30;;;11.10;99.90;;;11.25;100.00;101216.31;5031428;28;20042;-87
2023/09/30 03:59:12;;;;;;;28.30;6.70;;;11.00;99.90;;;11.22;100.00;101200.34;5029400;28;20511;-88
2023/09/30 04:01:40;;;;;;;20.40;6.50;;;11.10;99.90;;;11.16;100.00;101193.81;5019054;28;20046;-87
2023/09/30 04:04:09;;;;;;;17.33;5.75;;;11.00;99.90;;;11.20;100.00;101186.03;5016953;28;20120;-88
2023/09/30 04:06:38;;;;;;;18.63;6.32;;;11.00;99.90;;;11.10;100.00;101174.66;5043183;28;20033;-88
2023/09/30 04:09:09;;;;;;;23.67;6.25;;;11.00;99.90;;;11.13;100.00;101185.19;5039718;28;20034;-88
2023/09/30 04:11:38;;;;;;;26.88;7.20;;;11.00;99.90;;;11.07;100.00;101159.56;5030530;28;20405;-88
2023/09/30 04:14:08;;;;;;;22.20;7.57;;;11.00;99.90;;;11.08;100.00;101150.31;5023271;28;20116;-88
2023/09/30 04:16:35;;;;;;;18.42;7.05;;;11.00;99.90;;;11.16;100.00;101157.47;5021652;28;20109;-88
2023/09/30 04:19:01;;;;;;;26.50;7.25;;;11.00;99.90;;;11.10;100.00;101148.22;5015726;28;20513;-88
2023/09/30 04:21:29;;;;;;;23.65;7.28;;;11.00;99.90;;;11.14;100.00;101145.91;5023146;28;20030;-88
2023/09/30 04:23:55;;;;;;;20.73;7.40;;;11.00;99.90;;;11.18;100.00;101142.53;5023842;28;20474;-88
2023/09/30 04:26:22;;;;;;;25.92;7.97;;;11.10;99.90;;;11.12;100.00;101124.28;5023724;28;20034;-88
2023/09/30 04:28:48;;;;;;;27.88;7.60;;;11.10;99.90;;;11.18;100.00;101123.44;5022594;28;20501;-88
2023/09/30 04:31:14;;;;;;;24.48;7.90;;;11.10;99.90;;;11.21;100.00;101119.47;5013989;28;20052;-88
2023/09/30 04:33:40;;;;;;;22.05;7.53;;;11.10;99.90;;;11.22;100.00;101126.59;5013316;28;20485;-89
2023/09/30 04:36:09;;;;;;;22.23;7.43;;;11.10;99.90;;;11.22;100.00;101121.97;5014381;28;20099;-86
2023/09/30 04:38:37;;;;;;;21.73;6.95;;;11.10;99.90;;;11.25;100.00;101133.50;5024901;28;20045;-87
2023/09/30 04:41:03;;;;;;;21.15;7.28;;;11.00;99.90;;;11.21;100.00;101130.38;5021418;28;20046;-88
2023/09/30 04:43:29;;;;;;;22.23;7.72;;;11.00;99.90;;;11.22;100.00;101135.63;5026182;28;20358;-88
2023/09/30 04:45:56;;;;;;;20.50;7.05;;;11.00;99.90;;;11.23;100.00;101147.41;5015974;28;20038;-87
2023/09/30 04:48:23;;;;;;;22.10;7.47;;;11.00;99.90;;;11.19;100.00;101135.22;5019809;28;20033;-88
2023/09/30 04:50:51;;;;;;;20.35;7.18;;;11.10;99.90;;;11.25;100.00;101144.44;5039342;28;20045;-87
2023/09/30 04:53:17;;;;;;;31.75;8.45;;;11.10;99.90;;;11.20;100.00;101128.69;5006671;28;20056;-88
2023/09/30 04:55:44;;;;;;;23.50;7.25;;;11.10;99.90;;;11.29;100.00;101137.53;5025929;28;20405;-88
2023/09/30 04:58:11;;;;;;;31.40;8.23;;;11.20;99.90;;;11.31;100.00;101138.97;5023799;28;20102;-88
2023/09/30 05:00:37;;;;;;;26.65;7.65;;;11.10;99.90;;;11.27;100.00;101142.34;5024530;28;20298;-87
2023/09/30 05:03:04;;;;;;;21.13;7.25;;;11.10;99.90;;;11.23;100.00;101142.75;5013866;28;20084;-87
2023/09/30 05:05:31;;;;;;;25.33;7.57;;;11.10;99.90;;;11.24;100.00;101146.34;5011948;28;20042;-87
2023/09/30 05:07:57;;;;;;;21.15;7.70;;;11.00;99.90;;;11.22;100.00;101140.25;4996870;28;20034;-87
2023/09/30 05:10:24;;;;;;;30.00;7.85;;;11.00;99.90;;;11.16;100.00;101141.09;5016792;28;20116;-87
2023/09/30 05:12:53;;;;;;;23.77;8.43;;;11.00;99.90;;;11.16;100.00;101141.91;5017197;28;20145;-88
2023/09/30 05:15:21;;;;;;;19.92;7.65;;;11.00;99.90;;;11.13;100.00;101150.53;5019783;28;20044;-88
2023/09/30 05:17:49;;;;;;;21.88;7.88;;;10.90;99.90;;;11.12;100.00;101145.25;5016953;28;20391;-88
2023/09/30 05:20:19;;;;;;;22.88;7.60;;;11.00;99.90;;;11.14;100.00;101149.47;5023428;28;20116;-88
2023/09/30 05:22:46;;;;;;;27.25;8.07;;;11.00;99.90;;;11.16;100.00;101146.56;5029734;28;20126;-89
2023/09/30 05:25:16;;;;;;;24.33;7.65;;;11.00;99.90;;;11.20;100.00;101147.81;5019519;28;20682;-89
2023/09/30 05:27:44;;;;;;;24.55;7.40;;;11.00;99.90;;;11.22;100.00;101138.34;5018382;28;20520;-88
2023/09/30 05:30:10;;;;;;;21.70;7.30;;;11.00;99.90;;;11.22;100.00;101138.34;5019778;28;20052;-89
2023/09/30 05:32:38;;;;;;;19.77;6.22;;;11.00;99.90;;;11.27;100.00;101148.66;5020994;28;20065;-89
2023/09/30 05:35:12;;;;;;;28.77;7.45;;;11.10;99.90;;;11.29;100.00;101157.47;5021143;28;20041;-88
2023/09/30 05:37:40;;;;;;;25.15;8.05;;;11.10;99.90;;;11.22;100.00;101145.72;5025971;28;20485;-89
2023/09/30 05:40:16;;;;;;;19.35;6.63;;;11.10;99.90;;;11.28;100.00;101152.25;5007266;28;20388;-89
2023/09/30 05:42:44;;;;;;;25.42;7.28;;;11.10;99.90;;;11.29;100.00;101140.25;5022130;28;20037;-89
2023/09/30 05:45:12;;;;;;;23.65;7.32;;;11.20;99.90;;;11.32;100.00;101154.31;5017906;28;20033;-89
2023/09/30 05:47:39;;;;;;;19.90;6.78;;;11.20;99.90;;;11.38;100.00;101149.91;5016564;28;20044;-89
2023/09/30 05:50:07;;;;;;;22.67;7.25;;;11.20;99.90;;;11.43;100.00;101154.75;5022338;28;20025;-88
2023/09/30 05:52:33;;;;;;;17.52;6.40;;;11.30;99.90;;;11.50;100.00;101164.63;5018607;28;20523;-89
2023/09/30 05:55:00;;;;;;;20.60;7.45;;;11.30;99.90;;;11.55;100.00;101172.19;5027773;28;20072;-89
2023/09/30 05:57:27;;;;;;;24.00;6.53;;;11.30;99.90;;;11.52;100.00;101164.41;5021126;28;20040;-89
2023/09/30 05:59:53;;;;;;;16.53;6.10;;;11.40;99.90;;;11.61;100.00;101187.75;5029859;28;20037;-89
2023/09/30 06:02:19;;;;;;;21.27;6.22;;;11.40;99.90;;;11.59;100.00;101183.56;5044468;28;20994;-89
2023/09/30 06:04:46;;;;;;;20.42;6.80;;;11.40;99.90;;;11.74;100.00;101202.47;5020220;28;20041;-90
2023/09/30 06:07:12;;;;;;;25.58;6.53;;;11.50;99.90;;;11.79;100.00;101219.06;5027782;28;20452;-89
2023/09/30 06:09:38;;;;;;;21.27;6.20;;;11.60;99.90;;;11.85;100.00;101244.72;5017561;28;20099;-89
2023/09/30 06:12:06;;;;;;;22.55;5.93;;;11.70;99.90;;;11.87;100.00;101250.81;5021444;28;20037;-89
2023/09/30 06:14:33;;;;;;;21.45;6.43;;;11.70;99.90;;;11.99;100.00;101281.94;5031331;28;20056;-89
2023/09/30 06:16:59;;;;;;;19.70;6.03;;;11.80;99.90;;;11.96;100.00;101290.56;5016842;28;20461;-89
2023/09/30 06:19:25;;;;;;;20.13;6.00;;;11.90;99.90;;;12.11;100.00;101323.19;5016454;28;20117;-89
2023/09/30 06:21:52;;;;;;;18.63;5.90;;;11.90;99.90;;;12.20;100.00;101332.91;5030200;28;20056;-89
2023/09/30 06:24:21;;;;;;;19.20;5.70;;;12.00;99.90;;;12.17;100.00;101352.44;5024486;28;20092;-89
2023/09/30 06:26:48;;;;;;;21.05;5.38;;;12.00;99.90;;;12.14;100.00;101361.06;5019946;28;20183;-89
2023/09/30 06:29:15;;;;;;;18.17;5.82;;;12.10;99.90;;;12.25;100.00;101367.81;5024983;28;20450;-88
2023/09/30 06:31:40;;;;;;;21.38;5.85;;;12.10;99.90;;;12.24;100.00;101363.38;5028819;28;20162;-89
2023/09/30 06:34:09;;;;;;;17.67;5.68;;;12.10;99.90;;;12.22;100.00;101363.63;5028369;28;20042;-89
2023/09/30 06:36:37;;;;;;;22.08;5.90;;;12.10;99.90;;;12.22;100.00;101373.69;5018287;28;20045;-89
2023/09/30 06:39:05;;;;;;;19.42;5.63;;;12.10;99.90;;;12.28;100.00;101385.72;5024734;28;20040;-89
2023/09/30 06:41:31;;;;;;;;;;;12.10;99.90;;;12.36;100.00;101371.81;5025852;28;20047;-89
2023/09/30 06:43:57;;;;;;;19.15;5.40;;;12.20;99.90;;;12.42;100.00;101379.16;5030291;28;20012;-87
2023/09/30 06:46:23;;;;;;;20.00;5.88;;;12.30;99.90;;;12.48;100.00;101388.44;5021504;28;20913;-89
2023/09/30 06:48:52;;;;;;;15.75;5.35;;;12.30;99.90;;;12.63;100.00;101401.88;5028063;28;20045;-89
2023/09/30 06:51:17;;;;;;;17.98;5.47;;;12.50;99.90;;;12.75;100.00;101418.50;5044521;28;20063;-89
2023/09/30 06:53:45;;;;;;;15.60;5.32;;;12.50;99.90;;;12.82;100.00;101427.56;5025117;28;20092;-88
2023/09/30 06:56:12;;;;;;;18.52;5.70;;;12.60;99.90;;;12.85;100.00;101431.78;5036962;28;20054;-89
2023/09/30 06:58:38;;;;;;;16.43;5.13;;;12.70;99.90;;;12.99;100.00;101444.38;5049870;28;20501;-89
2023/09/30 07:01:04;;;;;;;20.63;5.55;;;12.80;99.90;;;13.03;100.00;101459.34;5043027;28;20143;-89
2023/09/30 07:03:32;;;;;;;16.17;5.50;;;12.90;99.90;;;13.19;100.00;101485.44;5040535;28;20040;-88
2023/09/30 07:06:00;;;;;;;19.87;4.83;;;13.00;99.90;;;13.19;100.00;101493.66;5025383;28;20038;-89
2023/09/30 07:08:29;;;;;;;17.63;4.97;;;13.10;99.90;;;13.39;100.00;101520.16;5036472;28;20033;-89
2023/09/30 07:10:56;;;;;;;21.00;5.05;;;13.20;99.90;;;13.51;100.00;101539.56;5028195;28;20030;-88
2023/09/30 07:13:22;;;;;;;13.85;4.13;;;13.40;99.90;;;13.60;100.00;101556.63;5026690;28;20061;-89
2023/09/30 07:15:48;;;;;;;15.68;4.57;;;13.40;99.90;;;13.74;100.00;101569.25;5031029;28;20068;-87
2023/09/30 07:18:14;;;;;;;18.40;4.90;;;13.60;99.90;;;13.79;100.00;101574.06;5033627;28;20026;-89
2023/09/30 07:20:39;;;;;;;16.15;4.05;;;13.70;99.90;;;13.86;100.00;101596.84;5036709;28;20052;-89
2023/09/30 07:23:05;;;;;;;13.48;4.28;;;13.80;99.90;;;14.09;100.00;101606.50;5029584;28;20060;-88
2023/09/30 07:25:34;;;;;;;16.00;4.30;;;13.90;99.90;;;14.13;100.00;101607.72;5023756;28;20033;-88
2023/09/30 07:28:02;;;;;;;16.60;4.43;;;14.10;99.90;;;14.24;100.00;101644.63;5021443;28;20050;-88
2023/09/30 07:30:28;;;;;;;17.92;4.75;;;14.20;99.90;;;14.24;100.00;101655.63;5041988;28;20514;-89
2023/09/30 07:32:53;;;;;;;16.35;3.95;;;14.20;99.90;;;14.46;100.00;101661.63;5026875;28;20056;-87
2023/09/30 07:35:19;;;;;;;12.23;4.15;;;;;;;14.64;100.00;101671.06;5022909;28;20080;-88
2023/09/30 07:37:46;;;;;;;16.08;3.90;;;;;;;14.76;100.00;101676.75;5020303;28;20149;-88
2023/09/30 07:40:13;;;;;;;14.52;3.92;;;;;;;14.84;100.00;101683.84;5027596;28;20025;-90
2023/09/30 07:42:39;;;;;;;13.38;3.17;;;;;;;15.04;100.00;101689.25;5026492;28;20042;-89
2023/09/30 07:45:07;;;;;;;15.43;4.10;;;;;;;15.27;100.00;101698.81;5021200;28;20045;-90
2023/09/30 07:47:33;;;;;;;;;;;;;;;15.44;100.00;101713.69;5021334;28;20042;-89
2023/09/30 07:50:06;;;;;;;11.88;3.10;;;;;;;15.55;100.00;101727.78;5033996;28;19984;-91
2023/09/30 07:52:32;;;;;;;13.40;3.45;;;;;;;15.55;100.00;101728.63;5032067;28;20038;-88
2023/09/30 07:54:58;;;;;;;10.20;2.92;;;;;;;15.68;100.00;101739.53;5034285;28;20030;-90
2023/09/30 07:57:25;;;;;;;12.45;3.42;;;;;;;15.64;100.00;101741.03;5034515;28;20044;-89
2023/09/30 07:59:52;;;;;;;13.27;3.22;;;;;;;15.79;100.00;101750.84;5024116;28;20030;-90
2023/09/30 08:02:18;;;;;;;13.43;3.25;;;;;;;16.13;100.00;101750.59;5025871;28;20056;-87
2023/09/30 08:04:44;;;;;;;11.80;3.75;;;;;;;16.29;100.00;101754.66;5041048;28;20053;-87
2023/09/30 08:07:10;;;;;;;12.15;3.50;;;;;;;16.40;100.00;101751.13;5035397;28;20104;-87
2023/09/30 08:09:37;;;;;;;12.00;3.28;;;;;;;16.53;100.00;101769.41;5043461;28;20045;-88
2023/09/30 08:12:04;;;;;;;8.73;3.15;;;;;;;16.41;100.00;101768.50;5036216;28;20046;-86
2023/09/30 08:14:30;;;;;;;9.73;3.30;;;;;;;16.68;100.00;101769.00;5032258;28;20042;-88
2023/09/30 08:16:56;;;;;;;10.15;2.92;;;;;;;16.92;100.00;101770.00;5032197;28;20033;-87
2023/09/30 08:19:23;;;;;;;11.88;3.15;;;;;;;17.05;100.00;101771.78;5027932;28;20037;-87
2023/09/30 08:21:49;;;;;;;11.85;3.00;;;;;;;17.18;100.00;101778.16;5024775;28;20048;-87
2023/09/30 08:24:15;;;;;;;14.13;3.17;;;;;;;17.29;100.00;101780.13;5025383;28;20038;-87
2023/09/30 08:26:41;;;;;;;13.23;3.53;;;;;;;17.37;100.00;101785.31;5022039;28;20026;-86
2023/09/30 08:29:10;;;;;;;13.68;3.25;;;;;;;17.56;100.00;101785.25;5025031;28;20090;-89
2023/09/30 08:31:36;;;;;;;10.07;2.90;;;;;;;17.75;100.00;101779.63;5021837;28;20049;-88
2023/09/30 08:34:03;;;;;;;11.68;2.70;;;;;;;17.53;100.00;101788.47;5023483;28;20048;-86
2023/09/30 08:36:31;;;;;;;8.70;2.53;;;;;;;17.73;100.00;101784.53;5024836;28;20034;-87
2023/09/30 08:38:57;;;;;;;11.73;3.28;;;;;;;17.76;100.00;101787.69;5027213;28;20294;-86
2023/09/30 08:41:34;;;;;;;12.25;2.70;;;;;;;17.75;100.00;101790.66;5032186;28;20084;-88
2023/09/30 08:44:04;;;;;;;11.07;2.30;;;;;;;17.81;100.00;101781.44;5020294;28;20041;-88
2023/09/30 08:46:34;;;;;;;12.07;2.35;;;;;;;17.93;100.00;101787.00;5026340;28;20042;-88
2023/09/30 08:49:05;;;;;;;10.40;2.42;;;;;;;17.89;100.00;101783.84;5024228;28;20068;-86
2023/09/30 08:51:32;;;;;;;9.27;2.40;;;;;;;18.00;100.00;101782.19;5022851;28;20055;-86
2023/09/30 08:53:59;;;;;;;10.18;2.40;;;;;;;18.28;100.00;101790.84;5022849;28;20050;-85
2023/09/30 08:56:32;;;;;;;10.63;2.42;;;;;;;18.17;100.00;101787.84;5017784;28;20033;-90
2023/09/30 08:59:00;;;;;;;8.18;2.50;;;;;;;18.14;100.00;101798.53;5013000;28;20043;-89
2023/09/30 09:01:31;;;;;;;9.52;1.80;;;;;;;17.97;100.00;101797.28;5032485;28;20056;-86
2023/09/30 09:03:57;;;;;;;10.13;2.20;;;;;;;18.15;100.00;101798.31;5032649;28;20044;-87
2023/09/30 09:06:25;;;;;;;11.20;2.35;;;;;;;18.03;100.00;101803.81;5020005;28;20037;-88
2023/09/30 09:08:51;;;;;;;9.68;2.25;;;;;;;18.17;100.00;101806.34;5025982;28;20077;-88
2023/09/30 09:11:18;;;;;;;10.18;2.60;;;;;;;18.49;100.00;101804.03;5026991;28;20041;-88
2023/09/30 09:13:50;;;;;;;12.35;2.30;;;;;;;18.48;100.00;101813.41;5030624;28;20045;-85
2023/09/30 09:16:18;;;;;;;7.90;2.10;;;;;;;18.44;100.00;101812.22;5020831;28;20061;-87
2023/09/30 09:18:47;;;;;;;11.02;2.65;;;;;;;18.66;100.00;101811.59;5021767;28;20040;-85
2023/09/30 09:21:22;;;;;;;8.55;2.38;;;;;;;18.40;100.00;101819.31;5044426;28;20046;-87
2023/09/30 09:23:50;;;;;;;12.23;2.90;;;;;;;18.26;100.00;101822.31;5042031;28;20038;-88
2023/09/30 09:26:31;;;;;;;10.35;2.30;;;;;;;18.69;100.00;101820.22;5046084;28;20097;-90
2023/09/30 09:28:59;;;;;;;9.90;2.47;;;;;;;18.72;100.00;101821.66;5033208;28;20042;-86
2023/09/30 09:31:27;;;;;;;;;;;;;;;19.20;100.00;101819.63;5042207;28;20053;-88
2023/09/30 09:33:53;;;;;;;8.68;2.70;;;;;;;19.24;100.00;101822.75;5033704;28;19928;-88
2023/09/30 09:36:19;;;;;;;9.10;1.95;;;;;;;19.09;100.00;101817.75;5020098;28;20159;-87
2023/09/30 09:38:53;;;;;;;7.65;2.13;;;;;;;19.25;100.00;101813.38;5024820;28;20606;-87
2023/09/30 09:41:20;;;;;;;8.52;1.90;;;;;;;18.78;100.00;101812.41;5017486;28;20044;-84
2023/09/30 09:43:50;;;;;;;11.70;2.63;;;;;;;18.80;100.00;101815.75;5017779;28;20038;-89
2023/09/30 09:46:17;;;;;;;8.02;2.13;;;;;;;19.46;100.00;101814.56;5018339;28;20582;-88
2023/09/30 09:48:48;;;;;;;7.93;1.92;;;;;;;20.05;100.00;101813.41;5029840;28;20090;-88
2023/09/30 09:51:18;;;;;;;8.52;2.75;;;;;;;20.25;100.00;101812.88;5032668;28;20466;-85
2023/09/30 09:53:44;;;;;;;8.77;2.40;;;;;;;20.24;100.00;101810.34;5013041;28;20126;-87
2023/09/30 09:56:11;;;;;;;7.80;2.08;;;;;;;21.15;100.00;101804.63;5019031;28;20029;-83
2023/09/30 09:58:42;;;;;;;7.85;2.40;;;;;;;20.59;100.00;101805.56;5027297;28;20095;-87
2023/09/30 10:01:10;;;;;;;8.68;2.38;;;;;;;21.24;99.40;101805.84;5019090;28;20142;-89
2023/09/30 10:03:40;;;;;;;;;;;;;;;20.43;99.12;101810.94;5014971;28;20043;-86
2023/09/30 10:06:10;;;;;;;9.95;2.13;;;;;;;20.84;100.00;101800.41;5030008;28;19971;-86
2023/09/30 10:08:41;;;;;;;11.18;2.33;;;;;;;20.62;100.00;101824.47;5019429;28;20038;-88
2023/09/30 10:11:09;;;;;;;8.30;2.17;;;;;;;20.67;100.00;101814.28;5018157;28;20037;-86
2023/09/30 10:13:55;;;;;;;7.72;2.53;;;;;;;20.31;100.00;101822.13;5013149;28;20125;-89
2023/09/30 10:16:37;;;;;;;5.85;1.75;;;;;;;19.25;100.00;101825.28;5009213;28;20510;-88
2023/09/30 10:19:10;;;;;;;7.97;1.90;;;;;;;18.86;100.00;101826.94;5026829;28;20069;-86
2023/09/30 10:21:37;;;;;;;8.68;2.30;;;;;;;18.45;100.00;101821.38;5014268;28;20033;-88